Time;durP1;ratioP1;P1;durP2;ratioP2;P2;SDS_P1;SDS_P2;PMS_P1;PMS_P2;Temp;Humidity;BMP_temperature;BMP_pressure;BME280_temperature;BME280_humidity;BME280_pressure;Samples;Min_cycle;Max_cycle;Signal;HPM_P1;HPM_P2
2022/01/24 00:00:55;;;;;;;;;;;8.10;99.90;;;;;;5134430;27;19998;-77
2022/01/24 00:03:21;;;;;;;;;;;8.10;99.90;;;;;;5135394;27;19950;-77
2022/01/24 00:05:47;;;;;;;;;;;8.10;99.90;;;;;;5134242;27;19914;-77
2022/01/24 00:08:13;;;;;;;;;;;8.00;99.90;;;;;;5135236;27;19911;-78
2022/01/24 00:10:40;;;;;;;;;;;8.10;99.90;;;;;;5115957;27;19920;-76
2022/01/24 00:15:53;;;;;;;;;;;8.00;99.90;;;;;;5135832;27;19991;-78
2022/01/24 00:26:39;;;;;;;;;;;8.10;99.90;;;;;;5136055;27;19911;-77
2022/01/24 00:29:10;;;;;;;;;;;8.10;99.90;;;;;;5135505;27;20344;-77
2022/01/24 00:31:36;;;;;;;;;;;8.00;99.90;;;;;;5135440;27;19916;-77
2022/01/24 00:34:01;;;;;;;;;;;8.00;99.90;;;;;;5134758;27;20435;-77
2022/01/24 00:36:27;;;;;;;;;;;8.00;99.90;;;;;;5134875;27;19912;-77
2022/01/24 00:38:53;;;;;;;;;;;8.00;99.90;;;;;;5134524;27;19953;-77
2022/01/24 00:41:20;;;;;;;;;;;8.00;99.90;;;;;;5135226;27;19912;-78
2022/01/24 00:44:10;;;;;;;;;;;8.00;99.90;;;;;;5134173;27;19908;-77
2022/01/24 00:46:45;;;;;;;;;;;8.00;99.90;;;;;;5134793;27;19914;-77
2022/01/24 00:54:43;;;;;;;;;;;8.10;99.90;;;;;;5133837;27;19929;-76
2022/01/24 00:57:09;;;;;;;;;;;8.10;99.90;;;;;;5134949;27;20380;-77
2022/01/24 00:59:35;;;;;;;;;;;8.10;99.90;;;;;;5134602;27;19908;-77
2022/01/24 01:02:00;;;;;;;;;;;8.10;99.90;;;;;;5134118;27;19909;-76
2022/01/24 01:04:35;;;;;;;;;;;8.10;99.90;;;;;;5134767;27;20344;-77
2022/01/24 01:07:05;;;;;;;;;;;8.10;99.90;;;;;;5134084;27;20165;-77
2022/01/24 01:20:32;;;;;;;;;;;8.10;99.90;;;;;;5134365;27;19915;-76
2022/01/24 01:22:58;;;;;;;;;;;8.10;99.90;;;;;;5133696;27;19908;-76
2022/01/24 01:25:23;;;;;;;;;;;8.10;99.90;;;;;;5134199;27;19952;-77
2022/01/24 01:27:52;;;;;;;;;;;8.10;99.90;;;;;;5133624;27;19907;-76
2022/01/24 01:30:22;;;;;;;;;;;8.20;99.90;;;;;;5133955;27;20300;-76
2022/01/24 01:35:37;;;;;;;;;;;8.20;99.90;;;;;;5134258;27;19930;-75
2022/01/24 01:56:16;;;;;;;;;;;8.30;99.90;;;;;;5133897;27;19986;-76
2022/01/24 01:58:41;;;;;;;;;;;8.30;99.90;;;;;;5133718;27;20002;-76
2022/01/24 02:01:07;;;;;;;;;;;8.30;99.90;;;;;;5132840;27;19914;-76
2022/01/24 02:03:33;;;;;;;;;;;8.30;99.90;;;;;;5115246;27;20352;-76
2022/01/24 02:05:58;;;;;;;;;;;8.30;99.90;;;;;;5131872;27;19964;-76
2022/01/24 02:08:26;;;;;;;;;;;8.20;99.90;;;;;;5133779;27;19908;-76
2022/01/24 02:10:52;;;;;;;;;;;8.30;99.90;;;;;;5132657;27;19916;-76
2022/01/24 02:13:18;;;;;;;;;;;8.30;99.90;;;;;;5133494;27;19915;-76
2022/01/24 02:16:00;;;;;;;;;;;8.30;99.90;;;;;;5133235;27;19908;-76
2022/01/24 02:18:43;;;;;;;;;;;8.30;99.90;;;;;;5133768;27;19908;-77
2022/01/24 02:21:41;;;;;;;;;;;8.30;99.90;;;;;;5132544;27;19912;-76
2022/01/24 02:24:09;;;;;;;;;;;8.30;99.90;;;;;;5132419;27;20355;-76
2022/01/24 02:26:35;;;;;;;;;;;8.20;99.90;;;;;;5133597;28;19908;-76
2022/01/24 02:31:51;;;;;;;;;;;8.20;99.90;;;;;;5093480;28;19926;-76
2022/01/24 02:34:19;;;;;;;;;;;8.20;99.90;;;;;;5133412;28;19907;-76
2022/01/24 02:36:45;;;;;;;;;;;8.20;99.90;;;;;;5133325;28;19907;-76
2022/01/24 02:39:43;;;;;;;;;;;8.20;99.90;;;;;;5133140;28;19908;-76
2022/01/24 02:50:19;;;;;;;;;;;8.10;99.90;;;;;;5132973;27;19972;-76
2022/01/24 02:52:45;;;;;;;;;;;8.10;99.90;;;;;;5114759;28;19916;-75
2022/01/24 02:55:11;;;;;;;;;;;8.10;99.90;;;;;;5132511;28;19912;-75
2022/01/24 02:57:36;;;;;;;;;;;8.10;99.90;;;;;;5133224;28;20272;-76
2022/01/24 03:00:02;;;;;;;;;;;8.10;99.90;;;;;;5132006;28;19912;-78
2022/01/24 03:02:28;;;;;;;;;;;8.10;99.90;;;;;;5133181;28;19907;-75
2022/01/24 03:04:56;;;;;;;;;;;8.00;99.90;;;;;;5132719;28;19936;-77
2022/01/24 03:07:21;;;;;;;;;;;8.00;99.90;;;;;;5133459;28;20348;-78
2022/01/24 03:09:49;;;;;;;;;;;8.00;99.90;;;;;;5132859;28;19994;-78
2022/01/24 03:12:25;;;;;;;;;;;7.90;99.90;;;;;;5132331;28;20363;-77
2022/01/24 03:14:50;;;;;;;;;;;7.90;99.90;;;;;;5132375;28;19954;-77
2022/01/24 03:17:16;;;;;;;;;;;7.90;99.90;;;;;;5135577;27;19946;-77
2022/01/24 03:19:42;;;;;;;;;;;7.80;99.90;;;;;;5136713;27;19907;-77
2022/01/24 03:22:09;;;;;;;;;;;7.70;99.90;;;;;;5136137;27;20410;-77
2022/01/24 03:24:34;;;;;;;;;;;7.70;99.90;;;;;;5136788;27;19911;-78
2022/01/24 03:27:00;;;;;;;;;;;7.60;99.90;;;;;;5136331;27;20267;-77
2022/01/24 03:29:26;;;;;;;;;;;7.60;99.90;;;;;;5137026;27;19907;-75
2022/01/24 03:31:51;;;;;;;;;;;7.50;99.90;;;;;;5135943;27;20393;-76
2022/01/24 03:34:17;;;;;;;;;;;7.40;99.90;;;;;;5117966;27;19911;-76
2022/01/24 03:36:43;;;;;;;;;;;7.30;99.90;;;;;;5136593;27;19951;-76
2022/01/24 03:39:08;;;;;;;;;;;7.10;99.90;;;;;;5135720;27;20304;-76
2022/01/24 03:41:34;;;;;;;;;;;7.00;99.90;;;;;;5136434;27;19907;-77
2022/01/24 03:44:04;;;;;;;;;;;6.90;99.90;;;;;;5135784;27;19915;-77
2022/01/24 03:46:46;;;;;;;;;;;6.80;99.90;;;;;;5136237;27;19915;-76
2022/01/24 03:49:44;;;;;;;;;;;6.70;99.90;;;;;;5135143;27;20368;-76
2022/01/24 03:51:57;;;;;;;;;;;6.60;99.90;;;;;;5135032;27;19915;-75
2022/01/24 03:54:23;;;;;;;;;;;6.50;99.90;;;;;;5135891;27;19914;-75
2022/01/24 03:56:48;;;;;;;;;;;6.40;99.90;;;;;;5136302;27;19912;-76
2022/01/24 03:59:14;;;;;;;;;;;6.40;99.90;;;;;;5135022;27;19979;-75
2022/01/24 04:01:39;;;;;;;;;;;6.30;99.90;;;;;;5136099;27;19907;-75
2022/01/24 04:04:05;;;;;;;;;;;6.20;99.90;;;;;;5135534;27;19915;-75
2022/01/24 04:06:30;;;;;;;;;;;6.20;99.90;;;;;;5136071;27;20245;-76
2022/01/24 04:08:56;;;;;;;;;;;6.10;99.90;;;;;;5134947;27;19907;-76
2022/01/24 04:11:22;;;;;;;;;;;6.10;99.90;;;;;;5135601;27;19915;-78
2022/01/24 04:13:56;;;;;;;;;;;6.10;99.90;;;;;;5114935;28;19914;-77
2022/01/24 04:21:27;;;;;;;;;;;5.90;99.90;;;;;;5114447;28;20114;-77
2022/01/24 04:24:14;;;;;;;;;;;5.90;99.90;;;;;;5096715;28;20364;-76
2022/01/24 04:26:39;;;;;;;;;;;5.80;99.90;;;;;;5115197;28;20272;-77
2022/01/24 04:29:07;;;;;;;;;;;5.80;99.90;;;;;;5121849;28;19943;-76
2022/01/24 04:31:33;;;;;;;;;;;5.60;99.90;;;;;;5132922;28;19916;-77
2022/01/24 04:33:59;;;;;;;;;;;5.50;99.90;;;;;;5122570;28;19918;-76
2022/01/24 04:36:25;;;;;;;;;;;5.50;99.90;;;;;;5115198;28;19930;-77
2022/01/24 04:38:51;;;;;;;;;;;5.40;99.90;;;;;;5114572;28;19907;-77
2022/01/24 04:41:24;;;;;;;;;;;5.40;99.90;;;;;;5113794;28;19946;-77
2022/01/24 04:51:55;;;;;;;;;;;5.10;99.90;;;;;;5134769;27;19967;-77
2022/01/24 04:54:40;;;;;;;;;;;5.00;99.90;;;;;;5134749;27;19907;-77
2022/01/24 04:57:07;;;;;;;;;;;5.00;99.90;;;;;;5134326;27;20026;-77
2022/01/24 04:59:33;;;;;;;;;;;5.00;99.90;;;;;;5116596;27;20007;-77
2022/01/24 05:01:59;;;;;;;;;;;5.00;99.90;;;;;;5134265;27;19933;-75
2022/01/24 05:04:24;;;;;;;;;;;5.00;99.90;;;;;;5134670;27;19908;-76
2022/01/24 05:06:50;;;;;;;;;;;5.00;99.90;;;;;;5134927;27;19911;-76
2022/01/24 05:09:18;;;;;;;;;;;5.10;99.90;;;;;;5133620;27;20061;-76
2022/01/24 05:11:51;;;;;;;;;;;5.10;99.90;;;;;;5134707;27;19916;-76
2022/01/24 05:25:13;;;;;;;;;;;5.00;99.90;;;;;;5133445;27;20004;-77
2022/01/24 05:27:39;;;;;;;;;;;5.00;99.90;;;;;;5134338;27;19946;-77
2022/01/24 05:30:05;;;;;;;;;;;5.00;99.90;;;;;;5133301;27;19907;-76
2022/01/24 05:32:30;;;;;;;;;;;5.00;99.90;;;;;;5134367;27;19916;-77
2022/01/24 05:34:56;;;;;;;;;;;5.10;99.90;;;;;;5134323;27;19960;-76
2022/01/24 05:37:22;;;;;;;;;;;5.10;99.90;;;;;;5133089;27;19908;-77
2022/01/24 05:39:47;;;;;;;;;;;5.00;99.90;;;;;;5134233;27;19908;-76
2022/01/24 05:42:13;;;;;;;;;;;5.00;99.90;;;;;;5133300;27;19907;-76
2022/01/24 05:44:38;;;;;;;;;;;4.90;99.90;;;;;;5134055;27;19918;-76
2022/01/24 05:47:04;;;;;;;;;;;4.90;99.90;;;;;;5133048;27;19912;-76
2022/01/24 05:49:30;;;;;;;;;;;4.80;99.90;;;;;;5115052;27;19970;-76
2022/01/24 05:51:55;;;;;;;;;;;4.80;99.90;;;;;;5134031;27;19915;-76
2022/01/24 05:54:21;;;;;;;;;;;4.70;99.90;;;;;;5133554;27;19915;-77
2022/01/24 05:56:47;;;;;;;;;;;4.60;99.90;;;;;;5134105;27;19915;-76
2022/01/24 05:59:12;;;;;;;;;;;4.50;99.90;;;;;;5132907;27;19908;-75
2022/01/24 06:01:38;;;;;;;;;;;4.50;99.90;;;;;;5133845;27;20272;-75
2022/01/24 06:04:04;;;;;;;;;;;4.40;99.90;;;;;;5132917;27;19994;-77
2022/01/24 06:06:29;;;;;;;;;;;4.40;99.90;;;;;;5133814;27;19911;-76
2022/01/24 06:08:55;;;;;;;;;;;4.40;99.90;;;;;;5115269;27;20340;-76
2022/01/24 06:11:23;;;;;;;;;;;4.30;99.90;;;;;;5132834;27;19938;-76
2022/01/24 06:13:51;;;;;;;;;;;4.30;99.90;;;;;;5133595;27;20367;-76
2022/01/24 06:16:16;;;;;;;;;;;4.20;99.90;;;;;;5132739;27;19953;-76
2022/01/24 06:18:42;;;;;;;;;;;4.20;99.90;;;;;;5133148;27;19911;-76
2022/01/24 06:21:08;;;;;;;;;;;4.10;99.90;;;;;;5132547;27;19908;-75
2022/01/24 06:23:33;;;;;;;;;;;4.00;99.90;;;;;;5133852;27;20403;-76
2022/01/24 06:25:59;;;;;;;;;;;4.00;99.90;;;;;;5133215;27;19998;-76
2022/01/24 06:28:24;;;;;;;;;;;4.00;99.90;;;;;;5132611;28;19911;-76
2022/01/24 06:30:50;;;;;;;;;;;3.80;99.90;;;;;;5133371;28;20348;-76
2022/01/24 06:33:15;;;;;;;;;;;3.80;99.90;;;;;;5114162;28;19915;-76
2022/01/24 06:35:41;;;;;;;;;;;3.80;99.90;;;;;;5132796;28;19930;-76
2022/01/24 06:38:07;;;;;;;;;;;3.80;99.90;;;;;;5132240;28;19907;-76
2022/01/24 06:40:32;;;;;;;;;;;3.80;99.90;;;;;;5133379;28;19915;-76
2022/01/24 06:42:58;;;;;;;;;;;3.70;99.90;;;;;;5133475;28;19976;-76
2022/01/24 06:45:24;;;;;;;;;;;3.70;99.90;;;;;;5132545;28;19903;-76
2022/01/24 06:47:49;;;;;;;;;;;3.60;99.90;;;;;;5133062;28;19907;-76
2022/01/24 06:50:15;;;;;;;;;;;3.60;99.90;;;;;;5132201;28;19920;-76
2022/01/24 06:52:40;;;;;;;;;;;3.60;99.90;;;;;;5136391;27;19916;-76
2022/01/24 06:55:06;;;;;;;;;;;3.60;99.90;;;;;;5136754;27;19908;-76
2022/01/24 06:57:32;;;;;;;;;;;3.60;99.90;;;;;;5137228;27;20355;-76
2022/01/24 06:59:57;;;;;;;;;;;3.50;99.90;;;;;;5137237;27;19907;-77
2022/01/24 07:02:23;;;;;;;;;;;3.50;99.90;;;;;;5136476;27;19908;-76
2022/01/24 07:04:50;;;;;;;;;;;3.50;99.90;;;;;;5144456;27;19911;-75
2022/01/24 07:07:15;;;;;;;;;;;3.40;99.90;;;;;;5154266;27;20356;-77
2022/01/24 07:09:41;;;;;;;;;;;3.40;99.90;;;;;;5144473;27;19907;-76
2022/01/24 07:12:08;;;;;;;;;;;3.40;99.90;;;;;;5117378;27;19919;-76
2022/01/24 07:14:34;;;;;;;;;;;3.40;99.90;;;;;;5118435;27;20257;-76
2022/01/24 07:17:11;;;;;;;;;;;3.30;99.90;;;;;;5136702;27;19917;-76
2022/01/24 07:19:36;;;;;;;;;;;3.30;99.90;;;;;;5136881;27;19914;-77
2022/01/24 07:22:03;;;;;;;;;;;3.30;99.90;;;;;;5136874;27;19907;-77
2022/01/24 07:24:29;;;;;;;;;;;3.30;99.90;;;;;;5135658;27;19984;-76
2022/01/24 07:26:55;;;;;;;;;;;3.20;99.90;;;;;;5136592;27;20364;-76
2022/01/24 07:29:20;;;;;;;;;;;3.30;99.90;;;;;;5116779;27;20284;-77
2022/01/24 07:31:46;;;;;;;;;;;3.30;99.90;;;;;;5136383;27;19915;-76
2022/01/24 07:34:12;;;;;;;;;;;3.30;99.90;;;;;;5135501;27;20336;-76
2022/01/24 07:36:38;;;;;;;;;;;3.30;99.90;;;;;;5136208;27;19960;-75
2022/01/24 07:39:03;;;;;;;;;;;3.20;99.90;;;;;;5136454;27;19975;-76
2022/01/24 07:41:31;;;;;;;;;;;3.20;99.90;;;;;;5135419;27;19961;-76
2022/01/24 07:43:57;;;;;;;;;;;3.10;99.90;;;;;;5136040;27;20356;-76
2022/01/24 07:46:23;;;;;;;;;;;3.00;99.90;;;;;;5135490;27;20006;-76
2022/01/24 07:48:49;;;;;;;;;;;3.10;99.90;;;;;;5135369;27;19920;-76
2022/01/24 07:51:18;;;;;;;;;;;3.10;99.90;;;;;;5135261;27;19915;-76
2022/01/24 07:53:43;;;;;;;;;;;3.10;99.90;;;;;;5136193;27;19946;-76
2022/01/24 07:56:10;;;;;;;;;;;3.20;99.90;;;;;;5135442;27;19943;-76
2022/01/24 07:58:36;;;;;;;;;;;3.10;99.90;;;;;;5135683;27;19907;-76
2022/01/24 08:01:01;;;;;;;;;;;3.10;99.90;;;;;;5135788;27;19969;-76
2022/01/24 08:03:27;;;;;;;;;;;3.10;99.90;;;;;;5133397;27;19915;-75
2022/01/24 08:05:53;;;;;;;;;;;3.00;99.90;;;;;;5135713;27;19907;-76
2022/01/24 08:08:18;;;;;;;;;;;2.90;99.90;;;;;;5134882;27;19918;-77
2022/01/24 08:10:44;;;;;;;;;;;2.90;99.90;;;;;;5135720;27;19911;-76
2022/01/24 08:13:10;;;;;;;;;;;2.90;99.90;;;;;;5134870;27;19934;-75
2022/01/24 08:15:35;;;;;;;;;;;2.90;99.90;;;;;;5135068;27;20344;-78
2022/01/24 08:18:01;;;;;;;;;;;2.80;99.90;;;;;;5134926;27;20282;-77
2022/01/24 08:20:27;;;;;;;;;;;2.80;99.90;;;;;;5134235;27;19938;-76
2022/01/24 08:22:52;;;;;;;;;;;2.80;99.90;;;;;;5134737;27;19914;-76
2022/01/24 08:25:18;;;;;;;;;;;2.70;99.90;;;;;;5134376;27;19912;-78
2022/01/24 08:27:46;;;;;;;;;;;2.70;99.90;;;;;;5135500;27;19912;-77
2022/01/24 08:30:13;;;;;;;;;;;2.70;99.90;;;;;;5135419;27;19919;-75
2022/01/24 08:32:39;;;;;;;;;;;2.70;99.90;;;;;;5136613;27;20014;-76
2022/01/24 08:35:05;;;;;;;;;;;2.60;99.90;;;;;;5135080;27;20002;-75
2022/01/24 08:37:31;;;;;;;;;;;2.60;99.90;;;;;;5134573;27;19934;-77
2022/01/24 08:39:59;;;;;;;;;;;2.60;99.90;;;;;;5135114;27;20435;-77
2022/01/24 08:47:29;;;;;;;;;;;2.60;99.90;;;;;;5132226;27;19915;-77
2022/01/24 08:49:55;;;;;;;;;;;2.70;99.90;;;;;;5138050;27;19927;-77
2022/01/24 08:52:21;;;;;;;;;;;2.80;99.90;;;;;;5142335;27;19926;-77
2022/01/24 08:54:47;;;;;;;;;;;2.80;99.90;;;;;;5124793;27;19908;-76
2022/01/24 08:57:15;;;;;;;;;;;2.90;99.90;;;;;;5136988;27;19907;-75
2022/01/24 08:59:41;;;;;;;;;;;2.80;99.90;;;;;;5134401;27;19907;-76
2022/01/24 09:02:07;;;;;;;;;;;2.80;99.90;;;;;;5134568;27;19991;-77
2022/01/24 09:04:33;;;;;;;;;;;2.90;99.90;;;;;;5133057;27;19904;-75
2022/01/24 09:07:03;;;;;;;;;;;3.00;99.90;;;;;;5114585;27;19915;-77
2022/01/24 09:09:29;;;;;;;;;;;3.10;99.90;;;;;;5133383;27;19911;-76
2022/01/24 09:11:55;;;;;;;;;;;3.00;99.90;;;;;;5134092;27;19938;-76
2022/01/24 09:14:20;;;;;;;;;;;3.10;99.90;;;;;;5111921;27;20371;-76
2022/01/24 09:16:46;;;;;;;;;;;3.30;99.90;;;;;;5134740;27;19952;-77
2022/01/24 09:19:12;;;;;;;;;;;3.30;99.90;;;;;;5134389;27;20233;-76
2022/01/24 09:21:38;;;;;;;;;;;3.40;99.90;;;;;;5133644;27;19919;-75
2022/01/24 09:24:04;;;;;;;;;;;3.50;99.90;;;;;;5115887;27;19907;-76
2022/01/24 09:26:30;;;;;;;;;;;3.40;99.90;;;;;;5133841;27;19960;-77
2022/01/24 09:28:56;;;;;;;;;;;3.50;99.90;;;;;;5114975;27;20007;-76
2022/01/24 09:31:22;;;;;;;;;;;3.50;99.90;;;;;;5132557;27;19920;-76
2022/01/24 09:33:48;;;;;;;;;;;3.60;99.90;;;;;;5133122;27;19911;-75
2022/01/24 09:36:14;;;;;;;;;;;3.70;99.90;;;;;;5133249;27;19912;-76
2022/01/24 09:38:40;;;;;;;;;;;3.70;99.90;;;;;;5133674;27;19907;-76
2022/01/24 09:41:08;;;;;;;;;;;3.70;99.90;;;;;;5133520;27;19998;-76
2022/01/24 09:43:33;;;;;;;;;;;3.80;99.90;;;;;;5132983;27;19962;-76
2022/01/24 09:45:59;;;;;;;;;;;3.80;99.90;;;;;;5133872;27;19951;-76
2022/01/24 09:48:25;;;;;;;;;;;3.90;99.90;;;;;;5132411;27;19991;-75
2022/01/24 09:50:52;;;;;;;;;;;4.00;99.90;;;;;;5133662;27;19912;-77
2022/01/24 09:53:18;;;;;;;;;;;4.00;99.90;;;;;;5132306;27;19954;-74
2022/01/24 09:55:46;;;;;;;;;;;4.10;99.90;;;;;;5132859;27;21883;-76
2022/01/24 09:58:12;;;;;;;;;;;4.20;99.90;;;;;;5133360;27;19915;-75
2022/01/24 10:00:38;;;;;;;;;;;4.30;99.90;;;;;;5132788;27;19983;-76
2022/01/24 10:03:04;;;;;;;;;;;4.40;99.90;;;;;;5133317;27;20310;-76
2022/01/24 10:05:35;;;;;;;;;;;4.40;99.90;;;;;;5132381;27;19918;-76
2022/01/24 10:08:03;;;;;;;;;;;4.50;99.90;;;;;;5133495;27;19907;-76
2022/01/24 10:10:33;;;;;;;;;;;4.50;99.90;;;;;;5132536;27;19914;-76
2022/01/24 10:16:25;;;;;;;;;;;4.60;99.90;;;;;;5132089;27;19934;-77
2022/01/24 10:19:09;;;;;;;;;;;4.70;99.90;;;;;;5130499;27;19914;-75
2022/01/24 10:21:51;;;;;;;;;;;4.70;99.90;;;;;;5132215;27;19951;-75
2022/01/24 10:24:26;;;;;;;;;;;4.80;99.90;;;;;;5114652;27;19908;-75
2022/01/24 10:27:24;;;;;;;;;;;4.80;99.90;;;;;;5132665;27;20348;-75
2022/01/24 10:29:57;;;;;;;;;;;4.90;99.90;;;;;;5059407;28;20340;-76
2022/01/24 10:32:27;;;;;;;;;;;5.00;99.90;;;;;;5131766;28;19911;-75
2022/01/24 10:34:52;;;;;;;;;;;5.00;99.90;;;;;;5132635;28;20391;-76
2022/01/24 10:37:22;;;;;;;;;;;5.10;99.90;;;;;;5132622;28;19954;-76
2022/01/24 10:39:58;;;;;;;;;;;5.20;99.90;;;;;;5133172;28;19908;-75
2022/01/24 10:45:11;;;;;;;;;;;5.30;99.90;;;;;;5133184;28;19914;-75
2022/01/24 10:47:44;;;;;;;;;;;5.30;99.90;;;;;;5132207;28;19946;-75
2022/01/24 10:50:10;;;;;;;;;;;5.40;99.90;;;;;;5133125;28;19930;-76
2022/01/24 10:52:35;;;;;;;;;;;5.50;99.90;;;;;;5131836;28;20010;-76
2022/01/24 10:55:13;;;;;;;;;;;5.50;99.90;;;;;;5132432;28;20000;-75
2022/01/24 10:57:42;;;;;;;;;;;5.60;99.90;;;;;;5132298;28;19911;-75
2022/01/24 11:00:13;;;;;;;;;;;5.70;99.90;;;;;;5133040;28;20309;-76
2022/01/24 11:02:44;;;;;;;;;;;5.70;99.90;;;;;;5131914;28;19911;-76
2022/01/24 11:05:10;;;;;;;;;;;5.80;99.90;;;;;;5132931;28;19915;-76
2022/01/24 11:07:56;;;;;;;;;;;5.90;99.90;;;;;;5132149;28;19907;-75
2022/01/24 11:10:22;;;;;;;;;;;5.90;99.90;;;;;;5132730;28;20272;-75
2022/01/24 11:12:48;;;;;;;;;;;5.90;99.90;;;;;;5132560;28;19911;-75
2022/01/24 11:15:14;;;;;;;;;;;6.00;99.90;;;;;;5132870;28;20326;-75
2022/01/24 11:17:40;;;;;;;;;;;6.00;99.90;;;;;;5132174;28;19911;-76
2022/01/24 11:20:08;;;;;;;;;;;6.10;99.90;;;;;;5132759;28;20375;-76
2022/01/24 11:22:40;;;;;;;;;;;6.20;99.90;;;;;;5131471;28;19907;-76
2022/01/24 11:25:08;;;;;;;;;;;6.20;99.90;;;;;;5132692;28;20353;-76
2022/01/24 11:27:34;;;;;;;;;;;6.30;99.90;;;;;;5131976;28;19914;-76
2022/01/24 11:30:03;;;;;;;;;;;6.30;99.90;;;;;;5133143;28;19913;-76
2022/01/24 11:32:38;;;;;;;;;;;6.30;99.90;;;;;;5131730;28;20272;-76
2022/01/24 11:35:04;;;;;;;;;;;6.40;99.90;;;;;;5132933;28;20069;-76
2022/01/24 11:37:36;;;;;;;;;;;6.40;99.90;;;;;;5132982;27;19907;-76
2022/01/24 11:40:23;;;;;;;;;;;6.50;99.90;;;;;;5136212;27;20069;-76
2022/01/24 11:42:50;;;;;;;;;;;6.50;99.90;;;;;;5117444;27;19907;-76
2022/01/24 11:45:18;;;;;;;;;;;6.60;99.90;;;;;;5136249;27;19908;-76
2022/01/24 11:47:45;;;;;;;;;;;6.60;99.90;;;;;;5135466;27;20572;-76
2022/01/24 11:50:37;;;;;;;;;;;6.70;99.90;;;;;;5135720;27;19926;-76
2022/01/24 11:53:22;;;;;;;;;;;6.80;99.90;;;;;;5136162;27;19921;-76
2022/01/24 11:55:48;;;;;;;;;;;6.80;99.90;;;;;;5135738;27;19960;-76
2022/01/24 11:58:20;;;;;;;;;;;6.90;99.90;;;;;;5136044;27;20364;-76
2022/01/24 12:00:47;;;;;;;;;;;6.90;99.90;;;;;;5135309;27;19903;-76
2022/01/24 12:03:14;;;;;;;;;;;7.00;99.90;;;;;;5117086;27;20300;-76
2022/01/24 12:05:41;;;;;;;;;;;7.10;99.90;;;;;;5134414;27;19915;-76
2022/01/24 12:08:10;;;;;;;;;;;7.10;99.90;;;;;;5135371;27;19911;-77
2022/01/24 12:10:40;;;;;;;;;;;7.20;99.90;;;;;;5134383;27;20359;-77
2022/01/24 12:13:13;;;;;;;;;;;7.20;99.90;;;;;;5135250;27;19912;-77
2022/01/24 12:15:39;;;;;;;;;;;7.30;99.90;;;;;;5134678;27;19915;-75
2022/01/24 12:18:12;;;;;;;;;;;7.30;99.90;;;;;;5135485;27;20376;-76
2022/01/24 12:20:37;;;;;;;;;;;7.30;99.90;;;;;;5131880;27;19912;-76
2022/01/24 12:23:19;;;;;;;;;;;7.20;99.90;;;;;;5135185;27;20348;-76
2022/01/24 12:26:05;;;;;;;;;;;7.30;99.90;;;;;;5132789;27;20388;-78
2022/01/24 12:28:33;;;;;;;;;;;7.30;99.90;;;;;;5134765;27;19915;-76
2022/01/24 12:31:00;;;;;;;;;;;7.40;99.90;;;;;;5134992;27;19911;-77
2022/01/24 12:33:36;;;;;;;;;;;7.40;99.90;;;;;;5135330;27;19911;-74
2022/01/24 12:36:03;;;;;;;;;;;7.40;99.90;;;;;;5135373;27;19908;-75
2022/01/24 12:38:43;;;;;;;;;;;7.50;99.90;;;;;;5134732;27;19915;-75
2022/01/24 12:41:28;;;;;;;;;;;7.50;99.90;;;;;;5134886;27;19918;-76
2022/01/24 12:46:25;;;;;;;;;;;7.60;99.90;;;;;;5135075;27;19915;-76
2022/01/24 12:48:51;;;;;;;;;;;7.50;99.90;;;;;;5133306;27;20417;-77
2022/01/24 12:51:20;;;;;;;;;;;7.60;99.90;;;;;;5134625;27;20006;-76
2022/01/24 12:53:45;;;;;;;;;;;7.60;99.90;;;;;;5134031;27;19911;-76
2022/01/24 12:56:12;;;;;;;;;;;7.60;99.90;;;;;;5134871;27;19912;-76
2022/01/24 12:58:38;;;;;;;;;;;7.60;99.90;;;;;;5134061;27;19911;-75
2022/01/24 13:01:21;;;;;;;;;;;7.60;99.90;;;;;;5134890;27;20336;-76
2022/01/24 13:03:48;;;;;;;;;;;7.70;99.90;;;;;;5133987;27;19912;-77
2022/01/24 13:06:14;;;;;;;;;;;7.60;99.90;;;;;;5134484;27;19913;-76
2022/01/24 13:08:50;;;;;;;;;;;7.70;99.90;;;;;;5134429;27;20383;-76
2022/01/24 13:11:16;;;;;;;;;;;7.70;99.90;;;;;;5135804;27;19982;-77
2022/01/24 13:13:57;;;;;;;;;;;7.80;99.90;;;;;;5133375;27;19911;-76
2022/01/24 13:22:26;;;;;;;;;;;7.90;99.90;;;;;;5134179;27;19999;-76
2022/01/24 13:25:01;;;;;;;;;;;8.00;99.90;;;;;;5132889;27;20067;-76
2022/01/24 13:27:46;;;;;;;;;;;8.00;99.90;;;;;;5133413;27;20416;-75
2022/01/24 13:30:16;;;;;;;;;;;8.00;99.90;;;;;;5133186;27;20275;-76
2022/01/24 13:32:42;;;;;;;;;;;8.10;99.90;;;;;;5132944;27;20294;-76
2022/01/24 13:35:15;;;;;;;;;;;8.10;99.90;;;;;;5133926;27;19911;-76
2022/01/24 13:37:40;;;;;;;;;;;8.10;99.90;;;;;;5133071;27;19907;-76
2022/01/24 13:40:06;;;;;;;;;;;8.10;99.90;;;;;;5115459;27;19922;-76
2022/01/24 13:42:35;;;;;;;;;;;8.10;99.90;;;;;;5133382;27;19915;-76
2022/01/24 13:45:01;;;;;;;;;;;8.20;99.90;;;;;;5133800;27;19908;-76
2022/01/24 13:47:26;;;;;;;;;;;8.20;99.90;;;;;;5133600;27;19960;-76
2022/01/24 13:49:52;;;;;;;;;;;8.20;99.90;;;;;;5114211;27;19923;-76
2022/01/24 13:52:18;;;;;;;;;;;8.30;99.90;;;;;;5134055;27;19918;-76
2022/01/24 13:54:44;;;;;;;;;;;8.30;99.90;;;;;;5132624;27;19998;-76
2022/01/24 13:57:16;;;;;;;;;;;8.30;99.90;;;;;;5133231;27;19939;-76
2022/01/24 13:59:42;;;;;;;;;;;8.30;99.90;;;;;;5132998;27;19918;-75
2022/01/24 14:02:26;;;;;;;;;;;8.40;99.90;;;;;;5133631;27;19914;-76
2022/01/24 14:04:53;;;;;;;;;;;8.40;99.90;;;;;;5132964;27;19911;-76
2022/01/24 14:07:23;;;;;;;;;;;8.40;99.90;;;;;;5133593;27;19911;-76
2022/01/24 14:09:57;;;;;;;;;;;8.40;99.90;;;;;;5132358;27;19914;-75
2022/01/24 14:12:24;;;;;;;;;;;8.50;99.90;;;;;;5133048;27;20245;-78
2022/01/24 14:15:07;;;;;;;;;;;8.60;99.90;;;;;;5132165;27;19938;-76
2022/01/24 14:20:14;;;;;;;;;;;8.60;99.90;;;;;;5132898;27;19972;-76
2022/01/24 14:22:41;;;;;;;;;;;8.70;99.90;;;;;;5132454;27;20049;-75
2022/01/24 14:25:11;;;;;;;;;;;8.80;99.90;;;;;;5133063;27;20016;-76
2022/01/24 14:27:41;;;;;;;;;;;8.80;99.90;;;;;;5132533;27;19952;-76
2022/01/24 14:30:08;;;;;;;;;;;8.80;99.90;;;;;;5133425;27;19908;-77
2022/01/24 14:32:38;;;;;;;;;;;8.90;99.90;;;;;;5132563;28;19911;-77
2022/01/24 14:35:05;;;;;;;;;;;8.80;99.90;;;;;;5133398;28;19912;-76
2022/01/24 14:37:53;;;;;;;;;;;8.80;99.90;;;;;;5133330;28;19970;-76
2022/01/24 14:40:45;;;;;;;;;;;8.80;99.90;;;;;;5119352;28;19911;-77
2022/01/24 14:45:59;;;;;;;;;;;8.80;99.90;;;;;;5100112;28;19931;-77
2022/01/24 14:48:24;;;;;;;;;;;8.80;99.90;;;;;;5133130;28;19915;-75
2022/01/24 14:50:50;;;;;;;;;;;8.80;99.90;;;;;;5132234;28;19911;-76
2022/01/24 14:53:16;;;;;;;;;;;8.80;99.90;;;;;;5132879;28;20341;-76
2022/01/24 14:55:42;;;;;;;;;;;8.80;99.90;;;;;;5131773;28;20385;-76
2022/01/24 14:58:08;;;;;;;;;;;8.70;99.90;;;;;;5133009;28;20402;-76
2022/01/24 15:00:34;;;;;;;;;;;8.70;99.90;;;;;;5133480;28;19947;-76
2022/01/24 15:02:59;;;;;;;;;;;8.70;99.90;;;;;;5132447;28;20037;-76
2022/01/24 15:05:25;;;;;;;;;;;8.70;99.90;;;;;;5132763;28;20006;-77
2022/01/24 15:07:51;;;;;;;;;;;8.70;99.90;;;;;;5113753;28;19907;-76
2022/01/24 15:10:16;;;;;;;;;;;8.70;99.90;;;;;;5132523;28;19915;-77
2022/01/24 15:12:48;;;;;;;;;;;8.60;99.90;;;;;;5133468;27;20372;-76
2022/01/24 15:15:17;;;;;;;;;;;8.60;99.90;;;;;;5136863;27;20478;-76
2022/01/24 15:25:37;;;;;;;;;;;8.40;99.90;;;;;;5136438;27;20287;-76
2022/01/24 15:28:04;;;;;;;;;;;8.30;99.90;;;;;;5135795;27;19933;-76
2022/01/24 15:30:29;;;;;;;;;;;8.30;99.90;;;;;;5136269;27;19918;-77
2022/01/24 15:32:55;;;;;;;;;;;8.20;99.90;;;;;;5135620;27;19911;-76
2022/01/24 15:35:21;;;;;;;;;;;8.20;99.90;;;;;;5135730;27;20421;-76
2022/01/24 15:37:47;;;;;;;;;;;8.20;99.90;;;;;;5135927;27;19907;-75
2022/01/24 15:40:13;;;;;;;;;;;8.20;99.90;;;;;;5135469;27;19980;-76
2022/01/24 15:42:55;;;;;;;;;;;8.20;99.90;;;;;;5135376;27;19911;-75
2022/01/24 15:45:54;;;;;;;;;;;8.10;99.90;;;;;;5135721;27;20367;-75
2022/01/24 15:48:19;;;;;;;;;;;8.10;99.90;;;;;;5135319;27;19918;-75
2022/01/24 15:50:45;;;;;;;;;;;8.00;99.90;;;;;;5134553;27;19915;-75
2022/01/24 15:53:11;;;;;;;;;;;8.10;99.90;;;;;;5135460;27;19916;-75
2022/01/24 15:55:40;;;;;;;;;;;8.00;99.90;;;;;;5135231;27;20257;-77
2022/01/24 15:58:06;;;;;;;;;;;8.00;99.90;;;;;;5134465;27;19907;-77
2022/01/24 16:00:34;;;;;;;;;;;8.00;99.90;;;;;;5134925;27;20002;-76
2022/01/24 16:03:02;;;;;;;;;;;8.00;99.90;;;;;;5134419;27;19942;-76
2022/01/24 16:05:28;;;;;;;;;;;8.00;99.90;;;;;;5134890;27;19923;-76
2022/01/24 16:07:54;;;;;;;;;;;8.00;99.90;;;;;;5134205;27;19908;-77
2022/01/24 16:10:21;;;;;;;;;;;8.00;99.90;;;;;;5135251;27;19908;-77
2022/01/24 16:12:48;;;;;;;;;;;7.90;99.90;;;;;;5134452;27;19912;-77
2022/01/24 16:15:15;;;;;;;;;;;7.90;99.90;;;;;;5133386;27;19942;-77
2022/01/24 16:17:40;;;;;;;;;;;7.90;99.90;;;;;;5134285;27;19964;-76
2022/01/24 16:22:58;;;;;;;;;;;7.90;99.90;;;;;;5134329;27;19968;-76
2022/01/24 16:25:33;;;;;;;;;;;7.90;99.90;;;;;;5133809;27;20356;-76
2022/01/24 16:28:02;;;;;;;;;;;7.80;99.90;;;;;;5133735;27;20324;-76
2022/01/24 16:30:29;;;;;;;;;;;7.80;99.90;;;;;;5134722;27;19942;-79
2022/01/24 16:32:55;;;;;;;;;;;7.80;99.90;;;;;;5133818;27;19964;-76
2022/01/24 16:35:21;;;;;;;;;;;7.70;99.90;;;;;;5134693;27;19964;-77
2022/01/24 16:37:47;;;;;;;;;;;7.70;99.90;;;;;;5134039;27;19908;-75